עמוד ראשי
METAR-TAF:

METAR-TAF

שדות תעופה :

Cayo Largo del Sur, קובה

קו רוחב: 21-37N, קו אורך: 081-33W, גובה: 2מטר

תצפית מזג אוויר נוכחית

הדו"ח נערך לפני 1 שעות ו 31דקות, בשעה 07:50 UTC
רוח 2קשר מכיוון דרום-מזרח
טמפרטורת 25 צלסיוס
לחות 89%
לחץ 1013 hPa

METAR: MUCL 270750Z AUTO 14002KT 25/23 Q1013

זמן: 05:21 (09:21 UTC)

תחזית

הדו"ח נערך לפני 16 שעות ו 21דקות, בשעה 17:00 UTC
תחזית בתוקף מ 26 ב 18 UTC עד 27 ב 06 UTC
רוח 9קשר מכיוון דרום
ראות: 9000מטר
עננים פזורים בגובה 2000רגל

TAF: MUCL 261700Z 2618/2706 17009KT 9000 SCT020

תצפיות ותחזיות מזג אוויר לגבי יותר מ- 4,000 שדות תעופה ברחבי העולם. דוחות METAR ו- TAF.

התחנות הזמינות מסומנות בנקודות צהובות ואדומות על גבי המפה.

העבר את העכבר לנקודה הצבעונית על מנת לראות את שם התחנה.

לאחר מכן, לחץ כדי לראות את תוכן ואת תחזיות מזג האוויר.

כדי לשנות את המפה: לחץ על הכפתורים הירוקים עם הפלוס השחור כדי להתקרב; על הכפתור הירוק עם המקף כדי להתרחק; או בחיצים הירוקים למפות סמוכות.


METAR-TAF: